Thursday, April 24, 2014, 9:17 AM EDT

KIPT, Williamsport-lycoming County

Location: Montoursville, PA, United States Lat: 41.25
Local Time: 9:17 AM EDT (13:17 GMT) Lon: -76.917
Time Zone: US/Eastern Elev: 528 ft

Show me the last for .
Show Decoded

2014-04-24 08:54 METAR KIPT 241254Z 29010KT 10SM CLR 07/M08 A3009 RMK AO2 SLP191 T00671078 =
2014-04-24 07:54 METAR KIPT 241154Z 27009KT 10SM CLR 04/M07 A3007 RMK AO2 SLP187 T00441067 10044
                 20022 51024 =
2014-04-24 06:54 METAR KIPT 241054Z 28009KT 10SM CLR 03/M08 A3006 RMK AO2 SLP181 T00281083 =
2014-04-24 05:54 METAR KIPT 240954Z AUTO 28008KT 10SM CLR 03/M09 A3003 RMK AO2 SLP172 T00281089 =
2014-04-24 04:54 METAR KIPT 240854Z AUTO 30008KT 10SM CLR 03/M09 A3000 RMK AO2 SLP163 T00281089
                 53003 =
2014-04-24 03:54 METAR KIPT 240754Z AUTO 30008KT 10SM CLR 03/M09 A3000 RMK AO2 SLP161 T00281089 =
2014-04-24 02:54 METAR KIPT 240654Z AUTO 29009KT 10SM CLR 04/M09 A2999 RMK AO2 SLP160 T00391089 =
2014-04-24 01:54 METAR KIPT 240554Z AUTO 29008KT 10SM CLR 04/M08 A2999 RMK AO2 SLP159 T00391078
                 10078 20039 51012 =
2014-04-24 00:54 METAR KIPT 240454Z AUTO 30008KT 10SM CLR 05/M07 A2998 RMK AO2 SLP156 T00501067
                 401220039 =
2014-04-23 23:54 METAR KIPT 240354Z AUTO 30008KT 10SM CLR 06/M06 A2998 RMK AO2 SLP152 T00611056 =
2014-04-23 22:54 METAR KIPT 240254Z AUTO 31007KT 10SM CLR 05/M03 A2996 RMK AO2 SLP147 T00501033
                 51021 =
2014-04-23 21:54 METAR KIPT 240154Z 34005KT 10SM CLR 06/M03 A2995 RMK AO2 SLP143 T00611033 =
2014-04-23 20:54 METAR KIPT 240054Z 30009KT 10SM CLR 07/M04 A2992 RMK AO2 SLP134 T00721039 =
2014-04-23 19:54 METAR KIPT 232354Z 29009KT 10SM FEW055 08/M03 A2989 RMK AO2 SLP125 T00781033
                 10122 20078 51023 =
2014-04-23 18:54 METAR KIPT 232254Z 31009KT 10SM BKN050 09/M02 A2988 RMK AO2 PK WND 31027/2217
                 SLP120 T00941022 =
2014-04-23 17:54 METAR KIPT 232154Z 30016G25KT 10SM OVC047 08/M02 A2987 RMK AO2 PK WND 32030/2131
                 SLP119 T00831017 =
2014-04-23 16:54 METAR KIPT 232054Z 33016G25KT 10SM BKN050 BKN100 11/M01 A2982 RMK AO2 SLP101
                 T01061011 51012 =
2014-04-23 15:54 METAR KIPT 231954Z 31017KT 10SM BKN046 OVC060 11/M01 A2982 RMK AO2 SLP098
                 T01061006 =
2014-04-23 14:54 METAR KIPT 231854Z 29017G23KT 10SM OVC045 11/00 A2981 =
2014-04-23 13:54 METAR KIPT 231754Z 33013G23KT 10SM OVC044 12/00 A2979 RMK AO2 SLP089 T01170000
                 10117 20067 50004 =
2014-04-23 12:54 METAR KIPT 231654Z 30016G24KT 10SM OVC038 09/00 A2980 RMK AO2 SLP092 T00940000 =
2014-04-23 11:54 METAR KIPT 231554Z 30014KT 10SM OVC039 10/00 A2979 RMK AO2 SLP088 T01000000 =
2014-04-23 10:54 METAR KIPT 231454Z 32017G22KT 10SM OVC036 10/00 A2978 RMK AO2 SLP083 T01000000
                 53014 =
2014-04-23 09:54 METAR KIPT 231354Z 31013G21KT 10SM OVC037 09/00 A2976 RMK AO2 SLP078 T00890000 =

Support USWX by starting your Amazon purchase here.